sensor_id;sensor_type;location;lat;lon;timestamp;P1;durP1;ratioP1;P2;durP2;ratioP2
64405;SDS011;50730;48.628;8.994;2023-08-17T00:00:18;0.57;;;0.45;;
64405;SDS011;50730;48.628;8.994;2023-08-17T00:02:46;0.63;;;0.60;;
64405;SDS011;50730;48.628;8.994;2023-08-17T00:05:15;0.63;;;0.63;;
64405;SDS011;50730;48.628;8.994;2023-08-17T00:07:42;0.22;;;0.22;;
64405;SDS011;50730;48.628;8.994;2023-08-17T00:10:09;0.20;;;0.20;;
64405;SDS011;50730;48.628;8.994;2023-08-17T00:12:37;1.20;;;0.73;;
64405;SDS011;50730;48.628;8.994;2023-08-17T00:15:04;0.88;;;0.20;;
64405;SDS011;50730;48.628;8.994;2023-08-17T00:17:32;1.15;;;0.50;;
64405;SDS011;50730;48.628;8.994;2023-08-17T00:19:59;0.82;;;0.57;;
64405;SDS011;50730;48.628;8.994;2023-08-17T00:22:27;0.20;;;0.20;;
64405;SDS011;50730;48.628;8.994;2023-08-17T00:24:54;3.35;;;1.30;;
64405;SDS011;50730;48.628;8.994;2023-08-17T00:27:21;1.70;;;0.95;;
64405;SDS011;50730;48.628;8.994;2023-08-17T00:29:49;0.80;;;0.68;;
64405;SDS011;50730;48.628;8.994;2023-08-17T00:32:16;0.95;;;0.70;;
64405;SDS011;50730;48.628;8.994;2023-08-17T00:34:43;0.13;;;0.13;;
64405;SDS011;50730;48.628;8.994;2023-08-17T00:37:10;1.55;;;0.30;;
64405;SDS011;50730;48.628;8.994;2023-08-17T00:39:38;0.40;;;0.40;;
64405;SDS011;50730;48.628;8.994;2023-08-17T00:42:05;0.20;;;0.20;;
64405;SDS011;50730;48.628;8.994;2023-08-17T00:44:33;0.40;;;0.40;;
64405;SDS011;50730;48.628;8.994;2023-08-17T00:47:00;0.38;;;0.38;;
64405;SDS011;50730;48.628;8.994;2023-08-17T00:49:29;0.47;;;0.47;;
64405;SDS011;50730;48.628;8.994;2023-08-17T00:51:56;0.57;;;0.20;;
64405;SDS011;50730;48.628;8.994;2023-08-17T00:54:24;0.93;;;0.85;;
64405;SDS011;50730;48.628;8.994;2023-08-17T00:56:53;3.50;;;1.55;;
64405;SDS011;50730;48.628;8.994;2023-08-17T00:59:20;0.70;;;0.50;;
64405;SDS011;50730;48.628;8.994;2023-08-17T01:01:48;0.65;;;0.57;;
64405;SDS011;50730;48.628;8.994;2023-08-17T01:04:15;0.10;;;0.10;;
64405;SDS011;50730;48.628;8.994;2023-08-17T01:06:42;0.90;;;0.80;;
64405;SDS011;50730;48.628;8.994;2023-08-17T01:09:09;1.35;;;0.95;;
64405;SDS011;50730;48.628;8.994;2023-08-17T01:11:37;2.42;;;0.73;;
64405;SDS011;50730;48.628;8.994;2023-08-17T01:14:09;0.00;;;0.00;;
64405;SDS011;50730;48.628;8.994;2023-08-17T01:16:38;2.08;;;0.52;;
64405;SDS011;50730;48.628;8.994;2023-08-17T01:19:07;0.10;;;0.10;;
64405;SDS011;50730;48.628;8.994;2023-08-17T01:21:36;0.60;;;0.35;;
64405;SDS011;50730;48.628;8.994;2023-08-17T01:24:06;0.35;;;0.32;;
64405;SDS011;50730;48.628;8.994;2023-08-17T01:26:33;0.63;;;0.60;;
64405;SDS011;50730;48.628;8.994;2023-08-17T01:29:00;1.55;;;0.50;;
64405;SDS011;50730;48.628;8.994;2023-08-17T01:31:28;0.52;;;0.52;;
64405;SDS011;50730;48.628;8.994;2023-08-17T01:34:03;0.43;;;0.43;;
64405;SDS011;50730;48.628;8.994;2023-08-17T01:36:32;0.63;;;0.40;;
64405;SDS011;50730;48.628;8.994;2023-08-17T01:39:00;0.10;;;0.10;;
64405;SDS011;50730;48.628;8.994;2023-08-17T01:41:29;1.35;;;1.25;;
64405;SDS011;50730;48.628;8.994;2023-08-17T01:43:57;0.35;;;0.30;;
64405;SDS011;50730;48.628;8.994;2023-08-17T01:46:27;0.95;;;0.85;;
64405;SDS011;50730;48.628;8.994;2023-08-17T01:48:55;0.40;;;0.40;;
64405;SDS011;50730;48.628;8.994;2023-08-17T01:51:22;0.52;;;0.47;;
64405;SDS011;50730;48.628;8.994;2023-08-17T01:53:50;0.38;;;0.30;;
64405;SDS011;50730;48.628;8.994;2023-08-17T01:56:17;0.40;;;0.40;;
64405;SDS011;50730;48.628;8.994;2023-08-17T01:58:45;0.30;;;0.30;;
64405;SDS011;50730;48.628;8.994;2023-08-17T02:01:12;0.43;;;0.43;;
64405;SDS011;50730;48.628;8.994;2023-08-17T02:03:40;2.10;;;0.82;;
64405;SDS011;50730;48.628;8.994;2023-08-17T02:06:10;0.28;;;0.28;;
64405;SDS011;50730;48.628;8.994;2023-08-17T02:08:37;0.40;;;0.40;;
64405;SDS011;50730;48.628;8.994;2023-08-17T02:11:04;0.65;;;0.43;;
64405;SDS011;50730;48.628;8.994;2023-08-17T02:13:31;0.20;;;0.20;;
64405;SDS011;50730;48.628;8.994;2023-08-17T02:16:00;0.57;;;0.32;;
64405;SDS011;50730;48.628;8.994;2023-08-17T02:18:27;0.60;;;0.60;;
64405;SDS011;50730;48.628;8.994;2023-08-17T02:20:57;0.32;;;0.32;;
64405;SDS011;50730;48.628;8.994;2023-08-17T02:23:24;0.77;;;0.77;;
64405;SDS011;50730;48.628;8.994;2023-08-17T02:25:51;0.73;;;0.73;;
64405;SDS011;50730;48.628;8.994;2023-08-17T02:28:18;1.85;;;1.17;;
64405;SDS011;50730;48.628;8.994;2023-08-17T02:30:45;0.30;;;0.30;;
64405;SDS011;50730;48.628;8.994;2023-08-17T02:33:15;1.00;;;0.95;;
64405;SDS011;50730;48.628;8.994;2023-08-17T02:35:42;0.50;;;0.30;;
64405;SDS011;50730;48.628;8.994;2023-08-17T02:38:09;1.13;;;1.13;;
64405;SDS011;50730;48.628;8.994;2023-08-17T02:40:36;0.45;;;0.28;;
64405;SDS011;50730;48.628;8.994;2023-08-17T02:43:03;0.68;;;0.68;;
64405;SDS011;50730;48.628;8.994;2023-08-17T02:45:30;0.85;;;0.85;;
64405;SDS011;50730;48.628;8.994;2023-08-17T02:47:57;1.30;;;0.75;;
64405;SDS011;50730;48.628;8.994;2023-08-17T02:50:26;1.55;;;0.85;;
64405;SDS011;50730;48.628;8.994;2023-08-17T02:52:53;2.17;;;0.98;;
64405;SDS011;50730;48.628;8.994;2023-08-17T02:55:20;1.77;;;1.17;;
64405;SDS011;50730;48.628;8.994;2023-08-17T02:57:47;0.20;;;0.20;;
64405;SDS011;50730;48.628;8.994;2023-08-17T03:05:18;0.93;;;0.88;;
64405;SDS011;50730;48.628;8.994;2023-08-17T03:07:46;9.07;;;1.20;;
64405;SDS011;50730;48.628;8.994;2023-08-17T03:10:13;0.73;;;0.73;;
64405;SDS011;50730;48.628;8.994;2023-08-17T03:12:40;0.90;;;0.88;;
64405;SDS011;50730;48.628;8.994;2023-08-17T03:15:08;0.35;;;0.35;;
64405;SDS011;50730;48.628;8.994;2023-08-17T03:17:35;8.40;;;2.05;;
64405;SDS011;50730;48.628;8.994;2023-08-17T03:20:02;3.03;;;1.10;;
64405;SDS011;50730;48.628;8.994;2023-08-17T03:22:31;0.82;;;0.82;;
64405;SDS011;50730;48.628;8.994;2023-08-17T03:25:00;1.65;;;0.47;;
64405;SDS011;50730;48.628;8.994;2023-08-17T03:27:27;1.25;;;1.15;;
64405;SDS011;50730;48.628;8.994;2023-08-17T03:29:54;0.85;;;0.85;;
64405;SDS011;50730;48.628;8.994;2023-08-17T03:32:22;1.02;;;1.00;;
64405;SDS011;50730;48.628;8.994;2023-08-17T03:34:49;1.73;;;1.27;;
64405;SDS011;50730;48.628;8.994;2023-08-17T03:37:16;0.55;;;0.55;;
64405;SDS011;50730;48.628;8.994;2023-08-17T03:39:43;1.67;;;0.93;;
64405;SDS011;50730;48.628;8.994;2023-08-17T03:42:12;0.52;;;0.52;;
64405;SDS011;50730;48.628;8.994;2023-08-17T03:44:39;1.95;;;0.98;;
64405;SDS011;50730;48.628;8.994;2023-08-17T03:47:06;1.15;;;0.75;;
64405;SDS011;50730;48.628;8.994;2023-08-17T03:49:33;0.70;;;0.30;;
64405;SDS011;50730;48.628;8.994;2023-08-17T03:52:00;1.67;;;1.58;;
64405;SDS011;50730;48.628;8.994;2023-08-17T03:54:27;0.80;;;0.77;;
64405;SDS011;50730;48.628;8.994;2023-08-17T03:56:54;2.08;;;1.13;;
64405;SDS011;50730;48.628;8.994;2023-08-17T03:59:23;1.27;;;1.17;;
64405;SDS011;50730;48.628;8.994;2023-08-17T04:01:50;1.00;;;0.85;;
64405;SDS011;50730;48.628;8.994;2023-08-17T04:04:17;1.50;;;1.23;;
64405;SDS011;50730;48.628;8.994;2023-08-17T04:06:45;1.83;;;1.27;;
64405;SDS011;50730;48.628;8.994;2023-08-17T04:09:12;2.90;;;1.33;;
64405;SDS011;50730;48.628;8.994;2023-08-17T04:11:39;3.42;;;2.10;;
64405;SDS011;50730;48.628;8.994;2023-08-17T04:14:06;1.02;;;1.02;;
64405;SDS011;50730;48.628;8.994;2023-08-17T04:16:35;1.63;;;0.90;;
64405;SDS011;50730;48.628;8.994;2023-08-17T04:19:02;3.65;;;1.92;;
64405;SDS011;50730;48.628;8.994;2023-08-17T04:21:30;1.15;;;1.05;;
64405;SDS011;50730;48.628;8.994;2023-08-17T04:23:57;2.00;;;1.25;;
64405;SDS011;50730;48.628;8.994;2023-08-17T04:26:24;1.55;;;0.82;;
64405;SDS011;50730;48.628;8.994;2023-08-17T04:28:54;2.90;;;1.15;;
64405;SDS011;50730;48.628;8.994;2023-08-17T04:31:24;1.33;;;1.20;;
64405;SDS011;50730;48.628;8.994;2023-08-17T04:33:52;1.80;;;0.63;;
64405;SDS011;50730;48.628;8.994;2023-08-17T04:36:20;0.40;;;0.40;;
64405;SDS011;50730;48.628;8.994;2023-08-17T04:38:47;2.85;;;1.00;;
64405;SDS011;50730;48.628;8.994;2023-08-17T04:41:14;1.33;;;0.65;;
64405;SDS011;50730;48.628;8.994;2023-08-17T04:43:41;1.35;;;1.25;;
64405;SDS011;50730;48.628;8.994;2023-08-17T04:46:11;0.10;;;0.05;;
64405;SDS011;50730;48.628;8.994;2023-08-17T04:48:38;0.63;;;0.50;;
64405;SDS011;50730;48.628;8.994;2023-08-17T04:51:07;2.25;;;1.63;;
64405;SDS011;50730;48.628;8.994;2023-08-17T04:53:34;1.35;;;0.52;;
64405;SDS011;50730;48.628;8.994;2023-08-17T04:56:02;4.38;;;1.40;;
64405;SDS011;50730;48.628;8.994;2023-08-17T04:58:29;5.13;;;1.23;;
64405;SDS011;50730;48.628;8.994;2023-08-17T05:00:57;1.52;;;1.42;;
64405;SDS011;50730;48.628;8.994;2023-08-17T05:03:24;2.40;;;1.15;;
64405;SDS011;50730;48.628;8.994;2023-08-17T05:05:51;0.75;;;0.75;;
64405;SDS011;50730;48.628;8.994;2023-08-17T05:08:20;0.45;;;0.45;;
64405;SDS011;50730;48.628;8.994;2023-08-17T05:10:47;1.17;;;1.17;;
64405;SDS011;50730;48.628;8.994;2023-08-17T05:13:15;0.55;;;0.40;;
64405;SDS011;50730;48.628;8.994;2023-08-17T05:15:42;1.17;;;0.98;;
64405;SDS011;50730;48.628;8.994;2023-08-17T05:18:09;1.75;;;1.08;;
64405;SDS011;50730;48.628;8.994;2023-08-17T05:20:37;0.88;;;0.77;;
64405;SDS011;50730;48.628;8.994;2023-08-17T05:23:04;0.70;;;0.65;;
64405;SDS011;50730;48.628;8.994;2023-08-17T05:25:33;2.60;;;1.90;;
64405;SDS011;50730;48.628;8.994;2023-08-17T05:28:00;1.98;;;0.90;;
64405;SDS011;50730;48.628;8.994;2023-08-17T05:30:27;0.77;;;0.73;;
64405;SDS011;50730;48.628;8.994;2023-08-17T05:32:54;2.08;;;0.73;;
64405;SDS011;50730;48.628;8.994;2023-08-17T05:35:21;0.52;;;0.25;;
64405;SDS011;50730;48.628;8.994;2023-08-17T05:37:48;2.05;;;1.27;;
64405;SDS011;50730;48.628;8.994;2023-08-17T05:40:16;1.23;;;0.68;;
64405;SDS011;50730;48.628;8.994;2023-08-17T05:42:44;2.50;;;0.80;;
64405;SDS011;50730;48.628;8.994;2023-08-17T05:45:11;1.50;;;0.73;;
64405;SDS011;50730;48.628;8.994;2023-08-17T05:47:38;1.38;;;1.10;;
64405;SDS011;50730;48.628;8.994;2023-08-17T05:50:06;1.95;;;1.65;;
64405;SDS011;50730;48.628;8.994;2023-08-17T05:52:33;0.70;;;0.70;;
64405;SDS011;50730;48.628;8.994;2023-08-17T05:55:01;0.80;;;0.25;;
64405;SDS011;50730;48.628;8.994;2023-08-17T05:57:28;1.42;;;0.88;;
64405;SDS011;50730;48.628;8.994;2023-08-17T05:59:56;1.17;;;0.60;;
64405;SDS011;50730;48.628;8.994;2023-08-17T06:02:24;1.67;;;0.47;;
64405;SDS011;50730;48.628;8.994;2023-08-17T06:04:51;0.57;;;0.40;;
64405;SDS011;50730;48.628;8.994;2023-08-17T06:07:18;0.30;;;0.10;;
64405;SDS011;50730;48.628;8.994;2023-08-17T06:09:45;0.85;;;0.57;;
64405;SDS011;50730;48.628;8.994;2023-08-17T06:12:13;0.35;;;0.35;;
64405;SDS011;50730;48.628;8.994;2023-08-17T06:14:40;0.47;;;0.47;;
64405;SDS011;50730;48.628;8.994;2023-08-17T06:17:09;0.82;;;0.63;;
64405;SDS011;50730;48.628;8.994;2023-08-17T06:19:36;0.00;;;0.00;;
64405;SDS011;50730;48.628;8.994;2023-08-17T06:22:04;1.40;;;1.00;;
64405;SDS011;50730;48.628;8.994;2023-08-17T06:24:31;0.38;;;0.38;;
64405;SDS011;50730;48.628;8.994;2023-08-17T06:26:58;1.58;;;0.45;;
64405;SDS011;50730;48.628;8.994;2023-08-17T06:29:26;0.70;;;0.68;;
64405;SDS011;50730;48.628;8.994;2023-08-17T06:31:53;1.73;;;0.60;;
64405;SDS011;50730;48.628;8.994;2023-08-17T06:34:21;0.82;;;0.50;;
64405;SDS011;50730;48.628;8.994;2023-08-17T06:36:56;0.47;;;0.47;;
64405;SDS011;50730;48.628;8.994;2023-08-17T06:39:24;0.73;;;0.73;;
64405;SDS011;50730;48.628;8.994;2023-08-17T06:41:51;0.40;;;0.40;;
64405;SDS011;50730;48.628;8.994;2023-08-17T06:44:18;2.05;;;0.82;;
64405;SDS011;50730;48.628;8.994;2023-08-17T06:46:45;1.27;;;1.17;;
64405;SDS011;50730;48.628;8.994;2023-08-17T06:49:13;0.35;;;0.35;;
64405;SDS011;50730;48.628;8.994;2023-08-17T06:51:41;1.45;;;1.02;;
64405;SDS011;50730;48.628;8.994;2023-08-17T06:54:08;0.57;;;0.45;;
64405;SDS011;50730;48.628;8.994;2023-08-17T06:56:35;0.10;;;0.08;;
64405;SDS011;50730;48.628;8.994;2023-08-17T06:59:03;0.57;;;0.40;;
64405;SDS011;50730;48.628;8.994;2023-08-17T07:01:30;2.35;;;0.65;;
64405;SDS011;50730;48.628;8.994;2023-08-17T07:03:57;0.43;;;0.43;;
64405;SDS011;50730;48.628;8.994;2023-08-17T07:06:25;0.73;;;0.68;;
64405;SDS011;50730;48.628;8.994;2023-08-17T07:08:54;0.45;;;0.45;;
64405;SDS011;50730;48.628;8.994;2023-08-17T07:11:21;0.20;;;0.20;;
64405;SDS011;50730;48.628;8.994;2023-08-17T07:13:49;0.25;;;0.25;;
64405;SDS011;50730;48.628;8.994;2023-08-17T07:16:16;0.25;;;0.25;;
64405;SDS011;50730;48.628;8.994;2023-08-17T07:18:43;0.10;;;0.10;;
64405;SDS011;50730;48.628;8.994;2023-08-17T07:21:10;1.17;;;1.08;;
64405;SDS011;50730;48.628;8.994;2023-08-17T07:23:37;2.60;;;0.88;;
64405;SDS011;50730;48.628;8.994;2023-08-17T07:26:06;0.75;;;0.75;;
64405;SDS011;50730;48.628;8.994;2023-08-17T07:28:33;0.82;;;0.52;;
64405;SDS011;50730;48.628;8.994;2023-08-17T07:31:00;1.17;;;0.30;;
64405;SDS011;50730;48.628;8.994;2023-08-17T07:33:27;0.65;;;0.30;;
64405;SDS011;50730;48.628;8.994;2023-08-17T07:35:54;1.38;;;0.35;;
64405;SDS011;50730;48.628;8.994;2023-08-17T07:38:23;0.10;;;0.10;;
64405;SDS011;50730;48.628;8.994;2023-08-17T07:40:50;2.17;;;1.50;;
64405;SDS011;50730;48.628;8.994;2023-08-17T07:43:19;1.88;;;0.65;;
64405;SDS011;50730;48.628;8.994;2023-08-17T07:45:52;0.15;;;0.15;;
64405;SDS011;50730;48.628;8.994;2023-08-17T07:48:19;0.75;;;0.47;;
64405;SDS011;50730;48.628;8.994;2023-08-17T07:50:47;1.25;;;1.02;;
64405;SDS011;50730;48.628;8.994;2023-08-17T07:53:15;1.52;;;0.70;;
64405;SDS011;50730;48.628;8.994;2023-08-17T07:55:42;1.02;;;0.95;;
64405;SDS011;50730;48.628;8.994;2023-08-17T07:58:09;1.00;;;1.00;;
64405;SDS011;50730;48.628;8.994;2023-08-17T08:00:38;0.45;;;0.45;;
64405;SDS011;50730;48.628;8.994;2023-08-17T08:03:05;1.17;;;0.95;;
64405;SDS011;50730;48.628;8.994;2023-08-17T08:05:33;0.40;;;0.40;;
64405;SDS011;50730;48.628;8.994;2023-08-17T08:08:00;1.02;;;0.95;;
64405;SDS011;50730;48.628;8.994;2023-08-17T08:10:27;0.55;;;0.55;;
64405;SDS011;50730;48.628;8.994;2023-08-17T08:12:54;0.65;;;0.65;;
64405;SDS011;50730;48.628;8.994;2023-08-17T08:15:22;0.52;;;0.32;;
64405;SDS011;50730;48.628;8.994;2023-08-17T08:17:50;1.25;;;0.63;;
64405;SDS011;50730;48.628;8.994;2023-08-17T08:20:17;1.08;;;0.80;;
64405;SDS011;50730;48.628;8.994;2023-08-17T08:22:44;0.85;;;0.28;;
64405;SDS011;50730;48.628;8.994;2023-08-17T08:25:12;0.80;;;0.80;;
64405;SDS011;50730;48.628;8.994;2023-08-17T08:27:39;0.57;;;0.57;;
64405;SDS011;50730;48.628;8.994;2023-08-17T08:30:06;0.52;;;0.38;;
64405;SDS011;50730;48.628;8.994;2023-08-17T08:32:34;0.50;;;0.50;;
64405;SDS011;50730;48.628;8.994;2023-08-17T08:35:03;0.98;;;0.35;;
64405;SDS011;50730;48.628;8.994;2023-08-17T08:37:30;0.88;;;0.63;;
64405;SDS011;50730;48.628;8.994;2023-08-17T08:39:57;0.35;;;0.35;;
64405;SDS011;50730;48.628;8.994;2023-08-17T08:42:24;0.10;;;0.10;;
64405;SDS011;50730;48.628;8.994;2023-08-17T08:44:51;1.15;;;0.90;;
64405;SDS011;50730;48.628;8.994;2023-08-17T08:47:19;0.10;;;0.10;;
64405;SDS011;50730;48.628;8.994;2023-08-17T08:49:49;0.80;;;0.47;;
64405;SDS011;50730;48.628;8.994;2023-08-17T08:52:19;0.50;;;0.50;;
64405;SDS011;50730;48.628;8.994;2023-08-17T08:54:46;0.50;;;0.50;;
64405;SDS011;50730;48.628;8.994;2023-08-17T08:57:16;1.13;;;0.70;;
64405;SDS011;50730;48.628;8.994;2023-08-17T08:59:44;0.15;;;0.15;;
64405;SDS011;50730;48.628;8.994;2023-08-17T09:02:14;0.10;;;0.10;;
64405;SDS011;50730;48.628;8.994;2023-08-17T09:04:41;3.78;;;0.50;;
64405;SDS011;50730;48.628;8.994;2023-08-17T09:07:08;0.57;;;0.10;;
64405;SDS011;50730;48.628;8.994;2023-08-17T09:09:38;1.40;;;0.40;;
64405;SDS011;50730;48.628;8.994;2023-08-17T09:12:05;0.10;;;0.10;;
64405;SDS011;50730;48.628;8.994;2023-08-17T09:14:34;0.30;;;0.30;;
64405;SDS011;50730;48.628;8.994;2023-08-17T09:17:02;0.10;;;0.10;;
64405;SDS011;50730;48.628;8.994;2023-08-17T09:19:31;0.30;;;0.30;;
64405;SDS011;50730;48.628;8.994;2023-08-17T09:21:58;0.10;;;0.10;;
64405;SDS011;50730;48.628;8.994;2023-08-17T09:24:32;0.45;;;0.15;;
64405;SDS011;50730;48.628;8.994;2023-08-17T09:27:01;0.10;;;0.10;;
64405;SDS011;50730;48.628;8.994;2023-08-17T09:29:28;0.75;;;0.28;;
64405;SDS011;50730;48.628;8.994;2023-08-17T09:31:58;0.73;;;0.38;;
64405;SDS011;50730;48.628;8.994;2023-08-17T09:34:25;0.22;;;0.20;;
64405;SDS011;50730;48.628;8.994;2023-08-17T09:37:01;1.27;;;0.35;;
64405;SDS011;50730;48.628;8.994;2023-08-17T09:39:29;0.45;;;0.25;;
64405;SDS011;50730;48.628;8.994;2023-08-17T09:41:56;0.35;;;0.17;;
64405;SDS011;50730;48.628;8.994;2023-08-17T09:44:25;0.90;;;0.28;;
64405;SDS011;50730;48.628;8.994;2023-08-17T09:46:54;0.10;;;0.10;;
64405;SDS011;50730;48.628;8.994;2023-08-17T09:49:22;0.73;;;0.52;;
64405;SDS011;50730;48.628;8.994;2023-08-17T09:51:50;4.78;;;3.33;;
64405;SDS011;50730;48.628;8.994;2023-08-17T09:54:20;4.03;;;2.80;;
64405;SDS011;50730;48.628;8.994;2023-08-17T09:56:48;4.13;;;2.95;;
64405;SDS011;50730;48.628;8.994;2023-08-17T09:59:16;3.28;;;2.97;;
64405;SDS011;50730;48.628;8.994;2023-08-17T10:01:45;4.93;;;3.08;;
64405;SDS011;50730;48.628;8.994;2023-08-17T10:04:13;3.88;;;3.05;;
64405;SDS011;50730;48.628;8.994;2023-08-17T10:06:42;3.75;;;3.08;;
64405;SDS011;50730;48.628;8.994;2023-08-17T10:09:09;3.75;;;3.22;;
64405;SDS011;50730;48.628;8.994;2023-08-17T10:11:39;5.03;;;3.72;;
64405;SDS011;50730;48.628;8.994;2023-08-17T10:14:08;5.30;;;3.30;;
64405;SDS011;50730;48.628;8.994;2023-08-17T10:16:38;4.95;;;3.35;;
64405;SDS011;50730;48.628;8.994;2023-08-17T10:19:10;6.53;;;3.50;;
64405;SDS011;50730;48.628;8.994;2023-08-17T10:21:39;4.35;;;3.47;;
64405;SDS011;50730;48.628;8.994;2023-08-17T10:24:07;4.13;;;3.13;;
64405;SDS011;50730;48.628;8.994;2023-08-17T10:26:34;4.40;;;3.30;;
64405;SDS011;50730;48.628;8.994;2023-08-17T10:29:02;7.47;;;3.05;;
64405;SDS011;50730;48.628;8.994;2023-08-17T10:31:29;8.02;;;3.28;;
64405;SDS011;50730;48.628;8.994;2023-08-17T10:33:57;3.67;;;3.03;;
64405;SDS011;50730;48.628;8.994;2023-08-17T10:36:26;3.85;;;2.80;;
64405;SDS011;50730;48.628;8.994;2023-08-17T10:41:45;3.92;;;2.42;;
64405;SDS011;50730;48.628;8.994;2023-08-17T10:44:13;4.07;;;2.95;;
64405;SDS011;50730;48.628;8.994;2023-08-17T10:46:40;3.88;;;2.60;;
64405;SDS011;50730;48.628;8.994;2023-08-17T10:49:24;3.72;;;2.55;;
64405;SDS011;50730;48.628;8.994;2023-08-17T10:52:03;3.60;;;2.97;;
64405;SDS011;50730;48.628;8.994;2023-08-17T10:54:39;3.78;;;2.92;;
64405;SDS011;50730;48.628;8.994;2023-08-17T10:57:27;4.10;;;2.85;;
64405;SDS011;50730;48.628;8.994;2023-08-17T11:00:07;4.07;;;3.00;;
64405;SDS011;50730;48.628;8.994;2023-08-17T11:02:35;4.85;;;3.13;;
64405;SDS011;50730;48.628;8.994;2023-08-17T11:05:03;3.42;;;2.90;;
64405;SDS011;50730;48.628;8.994;2023-08-17T11:07:39;3.30;;;3.00;;
64405;SDS011;50730;48.628;8.994;2023-08-17T11:12:35;5.05;;;3.15;;
64405;SDS011;50730;48.628;8.994;2023-08-17T11:15:06;3.10;;;2.80;;
64405;SDS011;50730;48.628;8.994;2023-08-17T11:17:33;5.43;;;2.95;;
64405;SDS011;50730;48.628;8.994;2023-08-17T11:20:00;4.80;;;2.90;;
64405;SDS011;50730;48.628;8.994;2023-08-17T11:22:27;3.33;;;2.50;;
64405;SDS011;50730;48.628;8.994;2023-08-17T11:24:56;6.20;;;2.90;;
64405;SDS011;50730;48.628;8.994;2023-08-17T11:27:24;4.63;;;2.63;;
64405;SDS011;50730;48.628;8.994;2023-08-17T11:29:52;4.85;;;2.83;;
64405;SDS011;50730;48.628;8.994;2023-08-17T11:32:20;5.20;;;3.08;;
64405;SDS011;50730;48.628;8.994;2023-08-17T11:34:47;6.00;;;3.38;;
64405;SDS011;50730;48.628;8.994;2023-08-17T11:37:14;3.50;;;2.40;;
64405;SDS011;50730;48.628;8.994;2023-08-17T11:39:42;2.40;;;2.20;;
64405;SDS011;50730;48.628;8.994;2023-08-17T11:42:11;4.15;;;2.63;;
64405;SDS011;50730;48.628;8.994;2023-08-17T11:44:43;3.60;;;2.80;;
64405;SDS011;50730;48.628;8.994;2023-08-17T11:47:10;3.00;;;2.63;;
64405;SDS011;50730;48.628;8.994;2023-08-17T11:49:38;3.67;;;2.58;;
64405;SDS011;50730;48.628;8.994;2023-08-17T11:52:05;4.18;;;2.55;;
64405;SDS011;50730;48.628;8.994;2023-08-17T11:54:32;3.90;;;2.58;;
64405;SDS011;50730;48.628;8.994;2023-08-17T11:56:59;4.38;;;2.83;;
64405;SDS011;50730;48.628;8.994;2023-08-17T11:59:28;4.85;;;3.00;;
64405;SDS011;50730;48.628;8.994;2023-08-17T12:01:58;14.88;;;3.60;;
64405;SDS011;50730;48.628;8.994;2023-08-17T12:04:27;3.88;;;3.20;;
64405;SDS011;50730;48.628;8.994;2023-08-17T12:06:54;4.55;;;3.00;;
64405;SDS011;50730;48.628;8.994;2023-08-17T12:09:21;8.25;;;3.40;;
64405;SDS011;50730;48.628;8.994;2023-08-17T12:11:52;6.10;;;3.50;;
64405;SDS011;50730;48.628;8.994;2023-08-17T12:14:20;4.38;;;3.50;;
64405;SDS011;50730;48.628;8.994;2023-08-17T12:16:49;5.68;;;3.35;;
64405;SDS011;50730;48.628;8.994;2023-08-17T12:19:16;3.67;;;3.08;;
64405;SDS011;50730;48.628;8.994;2023-08-17T12:21:43;5.97;;;3.25;;
64405;SDS011;50730;48.628;8.994;2023-08-17T12:24:10;4.20;;;3.15;;
64405;SDS011;50730;48.628;8.994;2023-08-17T12:26:40;4.25;;;3.28;;
64405;SDS011;50730;48.628;8.994;2023-08-17T12:29:08;4.18;;;2.97;;
64405;SDS011;50730;48.628;8.994;2023-08-17T12:31:35;7.90;;;3.28;;
64405;SDS011;50730;48.628;8.994;2023-08-17T12:34:04;5.18;;;3.20;;
64405;SDS011;50730;48.628;8.994;2023-08-17T12:36:31;6.63;;;3.30;;
64405;SDS011;50730;48.628;8.994;2023-08-17T12:39:00;5.45;;;3.88;;
64405;SDS011;50730;48.628;8.994;2023-08-17T12:41:28;4.75;;;3.70;;
64405;SDS011;50730;48.628;8.994;2023-08-17T12:43:56;7.65;;;3.50;;
64405;SDS011;50730;48.628;8.994;2023-08-17T12:46:24;4.30;;;3.45;;
64405;SDS011;50730;48.628;8.994;2023-08-17T12:48:51;5.30;;;3.72;;
64405;SDS011;50730;48.628;8.994;2023-08-17T12:51:19;5.13;;;3.45;;
64405;SDS011;50730;48.628;8.994;2023-08-17T12:53:46;5.88;;;3.25;;
64405;SDS011;50730;48.628;8.994;2023-08-17T12:56:14;3.92;;;3.33;;
64405;SDS011;50730;48.628;8.994;2023-08-17T12:58:41;4.80;;;3.40;;
64405;SDS011;50730;48.628;8.994;2023-08-17T13:01:08;4.07;;;3.30;;
64405;SDS011;50730;48.628;8.994;2023-08-17T13:03:35;3.88;;;3.20;;
64405;SDS011;50730;48.628;8.994;2023-08-17T13:06:03;9.30;;;3.50;;
64405;SDS011;50730;48.628;8.994;2023-08-17T13:08:31;6.45;;;3.40;;
64405;SDS011;50730;48.628;8.994;2023-08-17T13:10:58;6.65;;;3.58;;
64405;SDS011;50730;48.628;8.994;2023-08-17T13:13:25;7.05;;;3.45;;
64405;SDS011;50730;48.628;8.994;2023-08-17T13:15:52;7.35;;;3.00;;
64405;SDS011;50730;48.628;8.994;2023-08-17T13:18:19;4.25;;;3.35;;
64405;SDS011;50730;48.628;8.994;2023-08-17T13:20:47;6.95;;;3.05;;
64405;SDS011;50730;48.628;8.994;2023-08-17T13:23:14;7.25;;;2.85;;
64405;SDS011;50730;48.628;8.994;2023-08-17T13:25:42;6.72;;;2.70;;
64405;SDS011;50730;48.628;8.994;2023-08-17T13:28:09;5.15;;;2.92;;
64405;SDS011;50730;48.628;8.994;2023-08-17T13:30:37;4.72;;;2.90;;
64405;SDS011;50730;48.628;8.994;2023-08-17T13:33:05;6.45;;;3.65;;
64405;SDS011;50730;48.628;8.994;2023-08-17T13:35:32;7.82;;;5.28;;
64405;SDS011;50730;48.628;8.994;2023-08-17T13:37:59;5.63;;;3.53;;
64405;SDS011;50730;48.628;8.994;2023-08-17T13:40:29;5.07;;;3.25;;
64405;SDS011;50730;48.628;8.994;2023-08-17T13:42:57;7.85;;;3.22;;
64405;SDS011;50730;48.628;8.994;2023-08-17T13:45:25;6.38;;;3.05;;
64405;SDS011;50730;48.628;8.994;2023-08-17T13:47:53;6.90;;;3.20;;
64405;SDS011;50730;48.628;8.994;2023-08-17T13:50:20;6.35;;;4.00;;
64405;SDS011;50730;48.628;8.994;2023-08-17T13:52:47;6.90;;;3.72;;
64405;SDS011;50730;48.628;8.994;2023-08-17T13:55:14;6.97;;;3.28;;
64405;SDS011;50730;48.628;8.994;2023-08-17T13:57:41;5.22;;;3.13;;
64405;SDS011;50730;48.628;8.994;2023-08-17T14:00:11;6.03;;;3.30;;
64405;SDS011;50730;48.628;8.994;2023-08-17T14:02:38;7.10;;;3.17;;
64405;SDS011;50730;48.628;8.994;2023-08-17T14:05:05;8.18;;;3.40;;
64405;SDS011;50730;48.628;8.994;2023-08-17T14:07:33;7.10;;;2.97;;
64405;SDS011;50730;48.628;8.994;2023-08-17T14:10:00;99.05;;;10.68;;
64405;SDS011;50730;48.628;8.994;2023-08-17T14:12:27;95.25;;;11.40;;
64405;SDS011;50730;48.628;8.994;2023-08-17T14:14:54;42.00;;;7.03;;
64405;SDS011;50730;48.628;8.994;2023-08-17T14:17:23;12.15;;;3.20;;
64405;SDS011;50730;48.628;8.994;2023-08-17T14:19:50;9.02;;;3.53;;
64405;SDS011;50730;48.628;8.994;2023-08-17T14:22:17;8.80;;;3.40;;
64405;SDS011;50730;48.628;8.994;2023-08-17T14:24:44;26.67;;;6.07;;
64405;SDS011;50730;48.628;8.994;2023-08-17T14:27:11;13.05;;;3.90;;
64405;SDS011;50730;48.628;8.994;2023-08-17T14:29:38;9.77;;;4.00;;
64405;SDS011;50730;48.628;8.994;2023-08-17T14:32:06;8.15;;;4.15;;
64405;SDS011;50730;48.628;8.994;2023-08-17T14:34:35;7.18;;;4.68;;
64405;SDS011;50730;48.628;8.994;2023-08-17T14:37:02;7.88;;;4.22;;
64405;SDS011;50730;48.628;8.994;2023-08-17T14:39:29;8.95;;;4.28;;
64405;SDS011;50730;48.628;8.994;2023-08-17T14:41:56;8.13;;;4.00;;
64405;SDS011;50730;48.628;8.994;2023-08-17T14:44:23;6.47;;;3.72;;
64405;SDS011;50730;48.628;8.994;2023-08-17T14:46:50;5.95;;;3.58;;
64405;SDS011;50730;48.628;8.994;2023-08-17T14:49:18;9.52;;;3.97;;
64405;SDS011;50730;48.628;8.994;2023-08-17T14:51:46;9.23;;;4.00;;
64405;SDS011;50730;48.628;8.994;2023-08-17T14:54:13;8.07;;;3.58;;
64405;SDS011;50730;48.628;8.994;2023-08-17T14:56:40;7.53;;;4.15;;
64405;SDS011;50730;48.628;8.994;2023-08-17T14:59:07;5.80;;;3.42;;
64405;SDS011;50730;48.628;8.994;2023-08-17T15:01:34;7.68;;;3.25;;